Time;durP1;ratioP1;P1;durP2;ratioP2;P2;SDS_P1;SDS_P2;PMS_P1;PMS_P2;Temp;Humidity;BMP_temperature;BMP_pressure;BME280_temperature;BME280_humidity;BME280_pressure;Samples;Min_cycle;Max_cycle;Signal;HPM_P1;HPM_P2
2021/12/02 00:01:24;;;;;;;59.17;38.10;;;230.90;2252.80;;;;;;5029271;28;20064;-63
2021/12/02 00:03:50;;;;;;;62.08;37.75;;;230.90;2252.80;;;;;;5032520;28;20034;-63
2021/12/02 00:06:18;;;;;;;124.07;70.68;;;230.70;2252.80;;;;;;5033098;28;20035;-63
2021/12/02 00:08:45;;;;;;;201.80;107.60;;;230.80;2252.80;;;;;;5033091;28;20025;-63
2021/12/02 00:11:10;;;;;;;97.28;59.63;;;230.80;2252.80;;;;;;5033085;28;20021;-63
2021/12/02 00:13:48;;;;;;;133.25;73.13;;;230.90;2252.80;;;;;;5032760;28;20025;-63
2021/12/02 00:21:23;;;;;;;85.35;48.10;;;231.10;2252.80;;;;;;5033024;28;20489;-63
2021/12/02 00:24:00;;;;;;;157.00;91.10;;;231.10;2252.80;;;;;;5032767;28;20075;-62
2021/12/02 00:26:27;;;;;;;35.03;21.23;;;231.00;2252.80;;;;;;5032289;28;20376;-63
2021/12/02 00:28:55;;;;;;;46.63;29.52;;;231.00;2252.80;;;;;;5032753;28;20530;-63
2021/12/02 00:31:24;;;;;;;48.05;28.63;;;231.00;2252.80;;;;;;5032510;28;20095;-62
2021/12/02 00:33:53;;;;;;;95.32;60.85;;;230.90;2252.80;;;;;;5032592;28;20041;-63
2021/12/02 00:36:21;;;;;;;108.35;71.07;;;230.90;2252.80;;;;;;5032326;28;20444;-63
2021/12/02 00:38:48;;;;;;;68.25;38.55;;;231.00;2252.80;;;;;;5032757;28;20305;-63
2021/12/02 00:41:15;;;;;;;73.07;39.67;;;231.00;2252.80;;;;;;5032419;28;20079;-63
2021/12/02 00:43:43;;;;;;;73.40;46.15;;;231.00;2252.80;;;;;;5032363;28;20068;-62
2021/12/02 00:46:12;;;;;;;118.43;76.72;;;231.00;2252.80;;;;;;5032280;28;20040;-62
2021/12/02 00:48:38;;;;;;;105.57;64.55;;;231.00;2252.80;;;;;;5032219;28;20021;-62
2021/12/02 00:51:06;;;;;;;80.93;49.70;;;231.00;2252.80;;;;;;5032111;28;20112;-62
2021/12/02 00:53:33;;;;;;;97.03;57.20;;;230.90;2252.80;;;;;;5032245;28;20387;-62
2021/12/02 00:56:07;;;;;;;91.18;58.28;;;230.90;2252.80;;;;;;5032181;28;20619;-62
2021/12/02 00:58:33;;;;;;;70.63;47.13;;;230.90;2252.80;;;;;;5032561;28;20440;-62
2021/12/02 01:01:00;;;;;;;39.55;27.83;;;230.80;2252.80;;;;;;5031690;28;20431;-62
2021/12/02 01:03:34;;;;;;;37.22;24.85;;;230.80;2252.80;;;;;;5031687;28;20479;-63
2021/12/02 01:06:00;;;;;;;53.60;33.08;;;230.80;2252.80;;;;;;5031956;28;20511;-62
2021/12/02 01:08:27;;;;;;;44.80;29.63;;;230.80;2252.80;;;;;;5031704;28;20033;-62
2021/12/02 01:10:52;;;;;;;21.88;14.85;;;230.70;2252.80;;;;;;5032227;28;20033;-62
2021/12/02 01:13:19;;;;;;;12.27;7.15;;;230.80;2252.80;;;;;;5031594;28;20374;-62
2021/12/02 01:15:44;;;;;;;11.77;8.00;;;230.90;2252.80;;;;;;5030792;28;20466;-62
2021/12/02 01:18:10;;;;;;;16.38;9.48;;;230.90;2252.80;;;;;;5031803;28;20057;-62
2021/12/02 01:20:38;;;;;;;13.75;9.50;;;231.00;2252.80;;;;;;5031522;28;20459;-62
2021/12/02 01:23:07;;;;;;;13.05;8.68;;;231.10;2252.80;;;;;;5031510;28;20075;-62
2021/12/02 01:25:33;;;;;;;12.50;8.85;;;231.20;2252.80;;;;;;5031617;28;20041;-62
2021/12/02 01:28:00;;;;;;;17.27;12.02;;;231.30;2252.80;;;;;;5031829;28;20029;-62
2021/12/02 01:30:28;;;;;;;23.08;13.38;;;256.00;2252.80;;;;;;5031272;28;20072;-62
2021/12/02 01:33:01;;;;;;;30.50;18.80;;;256.00;2252.80;;;;;;5031399;28;20034;-62
2021/12/02 01:35:28;;;;;;;31.88;18.48;;;231.30;2252.80;;;;;;5031265;28;20033;-62
2021/12/02 01:37:55;;;;;;;27.08;16.65;;;256.00;2252.80;;;;;;5031117;28;20033;-62
2021/12/02 01:40:21;;;;;;;34.45;22.40;;;256.00;2252.80;;;;;;5031417;28;20034;-62
2021/12/02 01:42:52;;;;;;;27.52;16.13;;;256.00;2252.80;;;;;;5031170;28;20052;-62
2021/12/02 01:45:29;;;;;;;23.88;14.10;;;256.00;2252.80;;;;;;5030965;28;20034;-61
2021/12/02 01:47:57;;;;;;;23.95;15.70;;;256.10;2252.80;;;;;;5031103;28;20049;-64
2021/12/02 01:50:26;;;;;;;25.90;16.08;;;256.10;2252.80;;;;;;5031167;28;20475;-63
2021/12/02 01:53:00;;;;;;;14.10;7.63;;;256.10;2252.80;;;;;;5031543;28;20151;-63
2021/12/02 01:55:28;;;;;;;20.52;11.77;;;256.20;2252.80;;;;;;5030939;28;20025;-64
2021/12/02 01:58:05;;;;;;;82.60;49.65;;;256.20;2252.80;;;;;;5031262;28;20133;-63
2021/12/02 02:00:41;;;;;;;106.93;68.72;;;231.30;2252.80;;;;;;5030838;28;20049;-63
2021/12/02 02:03:08;;;;;;;81.40;52.50;;;231.10;2252.80;;;;;;5030651;28;20029;-63
2021/12/02 02:05:36;;;;;;;59.92;40.60;;;230.80;2252.80;;;;;;5031017;28;20040;-63
2021/12/02 02:08:17;;;;;;;50.88;35.88;;;230.70;2252.80;;;;;;5030897;28;20029;-64
2021/12/02 02:10:44;;;;;;;40.25;25.90;;;230.60;2252.80;;;;;;5029447;28;20392;-64
2021/12/02 02:13:12;;;;;;;38.15;26.20;;;230.60;2252.80;;;;;;5030997;28;20025;-63
2021/12/02 02:15:42;;;;;;;45.00;28.23;;;230.70;2252.80;;;;;;5030326;28;20033;-63
2021/12/02 02:18:26;;;;;;;15.43;8.45;;;230.70;2252.80;;;;;;5030441;28;20109;-63
2021/12/02 02:23:29;;;;;;;11.70;7.75;;;230.90;2252.80;;;;;;5030464;28;20037;-63
2021/12/02 02:25:56;;;;;;;9.63;4.80;;;231.00;2252.80;;;;;;5029236;28;20419;-63
2021/12/02 02:28:21;;;;;;;15.95;6.10;;;231.10;2252.80;;;;;;5030677;28;20053;-63
2021/12/02 02:30:47;;;;;;;12.93;8.48;;;231.10;2252.80;;;;;;5030387;28;20036;-63
2021/12/02 02:33:14;;;;;;;22.67;12.82;;;231.10;2252.80;;;;;;5030544;28;20037;-66
2021/12/02 02:35:42;;;;;;;17.83;11.13;;;231.00;2252.80;;;;;;5030482;28;20387;-62
2021/12/02 02:38:08;;;;;;;17.10;9.35;;;231.10;2252.80;;;;;;5030264;28;20022;-62
2021/12/02 02:40:36;;;;;;;14.13;6.88;;;231.20;2252.80;;;;;;5030403;28;20025;-62
2021/12/02 02:43:07;;;;;;;11.63;6.75;;;231.30;2252.80;;;;;;5030226;28;20105;-61
2021/12/02 02:45:34;;;;;;;32.80;15.57;;;231.30;2252.80;;;;;;5030126;28;20112;-62
2021/12/02 02:47:59;;;;;;;17.02;10.48;;;231.30;2252.80;;;;;;5030029;28;20025;-62
2021/12/02 02:50:25;;;;;;;28.15;17.15;;;256.10;2252.80;;;;;;5030009;28;20416;-63
2021/12/02 02:53:03;;;;;;;30.00;19.05;;;256.00;2252.80;;;;;;5030372;28;20060;-62
2021/12/02 02:55:29;;;;;;;81.90;55.28;;;231.30;2252.80;;;;;;5030000;28;20033;-63
2021/12/02 03:00:35;;;;;;;38.22;24.38;;;231.20;2252.80;;;;;;5029940;28;20049;-63
2021/12/02 03:05:53;;;;;;;58.33;31.63;;;231.20;2252.80;;;;;;5030154;28;20037;-62
2021/12/02 03:08:22;;;;;;;43.15;24.80;;;231.10;2252.80;;;;;;5029890;28;20034;-62
2021/12/02 03:10:53;;;;;;;35.13;21.40;;;231.00;2252.80;;;;;;5030054;28;20047;-63
2021/12/02 03:13:28;;;;;;;17.23;11.88;;;230.90;2252.80;;;;;;5029918;28;20068;-61
2021/12/02 03:18:38;;;;;;;33.05;21.25;;;231.10;2252.80;;;;;;5029868;28;20048;-61
2021/12/02 03:21:17;;;;;;;56.10;33.33;;;231.00;2252.80;;;;;;5029879;28;20026;-61
2021/12/02 03:23:58;;;;;;;23.17;14.20;;;231.00;2252.80;;;;;;5029933;28;20138;-61
2021/12/02 03:26:24;;;;;;;21.70;12.13;;;231.10;2252.80;;;;;;5029809;28;20467;-62
2021/12/02 03:28:53;;;;;;;13.98;7.93;;;231.10;2252.80;;;;;;5029842;28;20041;-62
2021/12/02 03:31:20;;;;;;;18.75;10.88;;;231.10;2252.80;;;;;;5029473;28;20069;-63
2021/12/02 03:33:46;;;;;;;14.15;10.10;;;230.90;2252.80;;;;;;5029517;28;20460;-63
2021/12/02 03:36:15;;;;;;;18.15;10.00;;;230.90;2252.80;;;;;;5029788;28;20426;-63
2021/12/02 03:38:41;;;;;;;17.85;10.95;;;230.90;2252.80;;;;;;5032597;28;20057;-62
2021/12/02 03:41:07;;;;;;;12.73;7.80;;;230.80;2252.80;;;;;;5033369;28;20030;-63
2021/12/02 03:43:37;;;;;;;13.88;7.50;;;230.90;2252.80;;;;;;5033560;28;20018;-61
2021/12/02 03:46:03;;;;;;;15.50;8.82;;;230.90;2252.80;;;;;;5033207;28;20037;-61
2021/12/02 03:48:30;;;;;;;24.67;15.10;;;230.90;2252.80;;;;;;5033167;28;20026;-61
2021/12/02 03:50:55;;;;;;;28.05;18.23;;;230.70;2252.80;;;;;;5033280;28;20032;-62
2021/12/02 03:53:21;;;;;;;28.80;20.27;;;230.80;2252.80;;;;;;5033611;28;20013;-62
2021/12/02 03:55:47;;;;;;;22.13;13.80;;;230.90;2252.80;;;;;;5033255;28;20380;-61
2021/12/02 03:58:13;;;;;;;17.80;11.75;;;230.80;2252.80;;;;;;5033271;28;20033;-61
2021/12/02 04:00:39;;;;;;;17.38;10.32;;;230.80;2252.80;;;;;;5032702;28;20137;-62
2021/12/02 04:03:05;;;;;;;18.27;10.65;;;230.80;2252.80;;;;;;5032887;28;20053;-62
2021/12/02 04:05:31;;;;;;;10.20;6.32;;;230.80;2252.80;;;;;;5033159;28;20071;-62
2021/12/02 04:07:57;;;;;;;11.80;7.70;;;230.90;2252.80;;;;;;5032879;28;20025;-62
2021/12/02 04:10:24;;;;;;;10.30;6.80;;;231.00;2252.80;;;;;;5033096;28;20032;-62
2021/12/02 04:15:38;;;;;;;12.45;6.15;;;256.00;2252.80;;;;;;5032782;28;20033;-62
2021/12/02 04:18:04;;;;;;;24.73;14.13;;;256.00;2252.80;;;;;;5032879;28;20492;-62
2021/12/02 04:20:30;;;;;;;26.02;15.23;;;256.00;2252.80;;;;;;5032741;28;20064;-62
2021/12/02 04:22:57;;;;;;;17.65;9.95;;;231.30;2252.80;;;;;;5032686;28;20017;-61
2021/12/02 04:25:24;;;;;;;10.25;5.65;;;231.20;2252.80;;;;;;5032914;28;20075;-61
2021/12/02 04:27:52;;;;;;;17.83;11.38;;;256.20;2252.80;;;;;;5032719;28;20105;-62
2021/12/02 04:30:25;;;;;;;9.93;5.55;;;256.40;2252.80;;;;;;5032403;28;20025;-63
2021/12/02 04:32:51;;;;;;;27.40;15.75;;;256.20;2252.80;;;;;;5032575;28;20379;-63
2021/12/02 04:35:17;;;;;;;38.03;22.63;;;256.10;2252.80;;;;;;5032522;28;20415;-63
2021/12/02 04:37:44;;;;;;;27.98;17.50;;;230.90;2252.80;;;;;;5032587;28;20021;-62
2021/12/02 04:40:14;;;;;;;27.42;16.27;;;230.70;2252.80;;;;;;5032299;28;20041;-63
2021/12/02 04:42:41;;;;;;;32.38;18.83;;;230.70;2252.80;;;;;;5032392;28;20467;-63
2021/12/02 04:45:07;;;;;;;31.70;18.45;;;230.70;2252.80;;;;;;5032315;28;20498;-63
2021/12/02 04:47:32;;;;;;;36.38;22.88;;;230.70;2252.80;;;;;;5032234;28;20025;-62
2021/12/02 04:49:58;;;;;;;32.58;22.73;;;230.70;2252.80;;;;;;5032067;28;20031;-63
2021/12/02 04:52:24;;;;;;;42.25;26.20;;;230.60;2252.80;;;;;;5032489;28;20029;-62
2021/12/02 04:54:50;;;;;;;52.92;34.10;;;230.50;2252.80;;;;;;5032141;28;20052;-63
2021/12/02 04:57:15;;;;;;;45.80;28.25;;;230.50;2252.80;;;;;;5031953;28;20036;-63
2021/12/02 04:59:41;;;;;;;50.95;28.70;;;230.40;2252.80;;;;;;5031806;28;20124;-62
2021/12/02 05:02:07;;;;;;;53.30;30.02;;;230.40;2252.80;;;;;;5031865;28;20072;-62
2021/12/02 05:04:33;;;;;;;30.38;18.27;;;230.50;2252.80;;;;;;5032049;28;20025;-62
2021/12/02 05:06:59;;;;;;;37.67;20.85;;;230.70;2252.80;;;;;;5031900;28;20033;-61
2021/12/02 05:09:24;;;;;;;38.70;23.13;;;230.70;2252.80;;;;;;5032168;28;20530;-62
2021/12/02 05:11:50;;;;;;;32.33;19.88;;;230.70;2252.80;;;;;;5032021;28;20068;-62
2021/12/02 05:14:16;;;;;;;74.82;42.10;;;230.70;2252.80;;;;;;5031683;28;20021;-62
2021/12/02 05:16:42;;;;;;;20.33;12.30;;;230.70;2252.80;;;;;;5031820;28;20100;-61
2021/12/02 05:19:08;;;;;;;38.20;19.55;;;230.70;2252.80;;;;;;5031554;28;20033;-62
2021/12/02 05:21:34;;;;;;;43.28;26.42;;;230.70;2252.80;;;;;;5031814;28;20029;-61
2021/12/02 05:23:59;;;;;;;83.35;51.45;;;230.60;2252.80;;;;;;5031367;28;20021;-62
2021/12/02 05:26:26;;;;;;;93.72;52.10;;;230.40;2252.80;;;;;;5031354;28;20502;-62
2021/12/02 05:28:53;;;;;;;30.27;18.65;;;230.40;2252.80;;;;;;5031655;28;20025;-62
2021/12/02 05:31:21;;;;;;;25.15;16.88;;;230.50;2252.80;;;;;;5031311;28;20036;-61
2021/12/02 05:33:47;;;;;;;178.30;92.70;;;230.60;2252.80;;;;;;5031237;28;20115;-61
2021/12/02 05:36:13;;;;;;;50.90;26.27;;;230.60;2252.80;;;;;;5031576;28;20029;-61
2021/12/02 05:38:40;;;;;;;45.97;24.13;;;230.70;2252.80;;;;;;5031156;28;20033;-62
2021/12/02 05:41:06;;;;;;;17.35;11.05;;;230.90;2252.80;;;;;;5031165;28;20029;-63
2021/12/02 05:43:32;;;;;;;20.35;11.63;;;231.10;2252.80;;;;;;5031237;28;20383;-62
2021/12/02 05:45:58;;;;;;;21.42;12.85;;;231.20;2252.80;;;;;;5030952;28;20076;-62
2021/12/02 05:48:24;;;;;;;18.27;11.35;;;231.30;2252.80;;;;;;5030484;28;20499;-60
2021/12/02 05:50:49;;;;;;;27.63;15.38;;;256.40;2252.80;;;;;;5031057;28;20084;-61
2021/12/02 05:53:16;;;;;;;12.85;6.93;;;256.20;2252.80;;;;;;5030788;28;20032;-61
2021/12/02 05:55:42;;;;;;;14.68;8.15;;;256.20;2252.80;;;;;;5030995;28;20025;-61
2021/12/02 05:58:10;;;;;;;14.48;9.82;;;256.30;2252.80;;;;;;5030501;28;20032;-61
2021/12/02 06:00:36;;;;;;;52.45;26.92;;;256.50;2252.80;;;;;;5029894;28;20049;-62
2021/12/02 06:03:02;;;;;;;55.72;25.73;;;256.50;2252.80;;;;;;5030715;28;20033;-62
2021/12/02 06:05:28;;;;;;;62.25;31.35;;;256.60;2252.80;;;;;;5030761;28;20039;-62
2021/12/02 06:07:57;;;;;;;62.22;36.67;;;256.60;2252.80;;;;;;5031070;28;20026;-61
2021/12/02 06:10:24;;;;;;;24.52;12.55;;;256.70;2252.80;;;;;;5030925;28;20056;-62
2021/12/02 06:12:50;;;;;;;17.35;11.80;;;256.80;2252.80;;;;;;5030792;28;20029;-61
2021/12/02 06:15:17;;;;;;;23.20;15.43;;;256.60;2252.80;;;;;;5030352;28;20093;-62
2021/12/02 06:17:43;;;;;;;120.63;64.00;;;256.60;2252.80;;;;;;5030908;28;20036;-63
2021/12/02 06:20:11;;;;;;;51.35;29.17;;;256.70;2252.80;;;;;;5030434;28;20151;-63
2021/12/02 06:22:36;;;;;;;28.20;14.55;;;256.80;2252.80;;;;;;5030496;28;20021;-63
2021/12/02 06:27:39;;;;;;;30.35;18.25;;;256.90;2252.80;;;;;;5030334;28;20028;-61
2021/12/02 06:30:05;;;;;;;27.58;16.58;;;281.60;2278.40;;;;;;5030650;28;20345;-61
2021/12/02 06:32:31;;;;;;;17.20;9.55;;;281.70;2278.40;;;;;;5030376;28;20021;-61
2021/12/02 06:34:57;;;;;;;48.00;31.88;;;281.80;2278.40;;;;;;5030234;28;20487;-61
2021/12/02 06:37:23;;;;;;;119.35;75.57;;;281.90;2278.40;;;;;;5030594;28;20021;-61
2021/12/02 06:39:49;;;;;;;175.32;117.30;;;282.00;2278.40;;;;;;5030059;28;20037;-61
2021/12/02 06:42:15;;;;;;;56.58;37.30;;;282.10;2278.40;;;;;;5030090;28;20036;-62
2021/12/02 06:44:41;;;;;;;25.30;19.02;;;282.40;2278.40;;;;;;5030356;28;20139;-61
2021/12/02 06:47:07;;;;;;;9.93;8.85;;;282.50;2278.40;;;;;;5029885;28;20037;-59
2021/12/02 06:49:33;;;;;;;10.35;7.90;;;307.30;2304.00;;;;;;5034717;28;20037;-61
2021/12/02 06:52:00;;;;;;;13.23;9.70;;;307.40;2304.00;;;;;;5039448;28;20070;-60
2021/12/02 06:54:26;;;;;;;13.15;9.90;;;307.40;2304.00;;;;;;5037215;28;20171;-60
2021/12/02 06:56:52;;;;;;;37.70;29.65;;;307.50;2304.00;;;;;;5043806;28;20112;-60
2021/12/02 06:59:19;;;;;;;16.67;13.98;;;307.60;2304.00;;;;;;5049832;28;20028;-59
2021/12/02 07:01:46;;;;;;;16.98;9.18;;;307.70;2304.00;;;;;;5049986;28;20043;-58
2021/12/02 07:04:12;;;;;;;15.15;10.32;;;307.70;2304.00;;;;;;5049928;28;20017;-60
2021/12/02 07:06:39;;;;;;;10.73;4.97;;;307.80;2304.00;;;;;;5032304;28;20034;-58
2021/12/02 07:09:06;;;;;;;15.90;10.73;;;307.80;2304.00;;;;;;5030164;28;20075;-59
2021/12/02 07:11:32;;;;;;;31.88;18.58;;;307.70;2304.00;;;;;;5030040;28;20108;-60
2021/12/02 07:14:05;;;;;;;13.00;7.80;;;307.80;2304.00;;;;;;5033281;28;20120;-58
2021/12/02 07:16:32;;;;;;;9.60;7.50;;;307.90;2304.00;;;;;;5034295;28;20430;-60
2021/12/02 07:18:59;;;;;;;10.82;6.78;;;308.00;2304.00;;;;;;5034049;28;20026;-58
2021/12/02 07:21:26;;;;;;;11.68;6.20;;;308.10;2304.00;;;;;;5034127;28;20033;-58
2021/12/02 07:23:52;;;;;;;16.88;10.75;;;308.10;2304.00;;;;;;5034121;28;20105;-57
2021/12/02 07:26:18;;;;;;;9.27;5.60;;;332.80;2329.60;;;;;;5033683;28;20034;-57
2021/12/02 07:28:45;;;;;;;35.60;22.63;;;332.90;2329.60;;;;;;5033822;28;20052;-64
2021/12/02 07:31:12;;;;;;;26.38;14.02;;;333.10;2329.60;;;;;;5033547;28;20045;-66
2021/12/02 07:33:39;;;;;;;39.95;23.85;;;333.20;2329.60;;;;;;5033482;28;20030;-62
2021/12/02 07:36:05;;;;;;;129.43;77.88;;;333.20;2329.60;;;;;;5033414;28;20025;-62
2021/12/02 07:38:32;;;;;;;75.82;44.78;;;333.30;2329.60;;;;;;5033767;28;20112;-63
2021/12/02 07:41:03;;;;;;;341.92;183.07;;;333.40;2329.60;;;;;;5033242;28;20052;-64
2021/12/02 07:43:34;;;;;;;50.55;32.42;;;333.50;2329.60;;;;;;5033578;28;20030;-57
2021/12/02 07:46:01;;;;;;;68.45;41.38;;;333.50;2329.60;;;;;;5033449;28;20033;-61
2021/12/02 07:48:27;;;;;;;51.25;31.88;;;333.70;2329.60;;;;;;5033308;28;20029;-58
2021/12/02 07:51:01;;;;;;;95.57;54.33;;;358.50;2329.60;;;;;;5033493;28;20021;-59
2021/12/02 07:53:28;;;;;;;120.70;71.00;;;358.60;2329.60;;;;;;5033257;28;20525;-60
2021/12/02 07:55:55;;;;;;;155.40;95.45;;;358.80;2304.00;;;;;;5033476;28;20034;-58
2021/12/02 07:58:24;;;;;;;91.80;56.33;;;358.80;2278.40;;;;;;5033442;28;20021;-57
2021/12/02 08:00:51;;;;;;;51.08;28.40;;;358.90;2278.40;;;;;;5033191;28;20142;-58
2021/12/02 08:03:17;;;;;;;44.83;26.90;;;358.90;2252.80;;;;;;5032829;28;20213;-57
2021/12/02 08:05:43;;;;;;;38.60;21.15;;;359.10;2252.80;;;;;;5033136;28;20033;-60
2021/12/02 08:08:09;;;;;;;50.55;31.77;;;384.00;2176.00;;;;;;5032022;28;20484;-57
2021/12/02 08:10:36;;;;;;;38.60;24.75;;;384.70;2150.40;;;;;;5032847;28;20029;-56
2021/12/02 08:13:03;;;;;;;49.10;34.95;;;410.00;2099.20;;;;;;5037371;28;20021;-55
2021/12/02 08:15:30;;;;;;;26.13;16.85;;;435.60;2022.40;;;;;;5052826;28;20025;-57
2021/12/02 08:17:58;;;;;;;11.00;8.35;;;435.90;1945.60;;;;;;5051041;28;20494;-57
2021/12/02 08:20:25;;;;;;;14.93;11.15;;;436.10;1894.40;;;;;;5052937;28;20029;-56
2021/12/02 08:22:52;;;;;;;38.75;27.13;;;436.10;1894.40;;;;;;5052583;28;20487;-56
2021/12/02 08:25:20;;;;;;;12.20;8.43;;;435.60;1945.60;;;;;;5052232;28;20048;-57
2021/12/02 08:27:46;;;;;;;4.57;2.97;;;435.30;1945.60;;;;;;5052424;28;20032;-57
2021/12/02 08:30:15;;;;;;;8.52;2.90;;;410.30;1971.20;;;;;;5052329;28;20037;-54
2021/12/02 08:32:43;;;;;;;3.22;1.75;;;410.20;1971.20;;;;;;5052574;28;20033;-57
2021/12/02 08:35:13;;;;;;;5.35;3.40;;;410.00;1971.20;;;;;;5052341;28;20478;-56
2021/12/02 08:37:46;;;;;;;5.28;3.40;;;409.70;1996.80;;;;;;5045452;28;20033;-59
2021/12/02 08:40:19;;;;;;;11.55;6.95;;;384.90;1996.80;;;;;;5040841;28;20032;-57
2021/12/02 08:42:46;;;;;;;10.60;6.82;;;384.70;2022.40;;;;;;5040192;28;20022;-59
2021/12/02 08:45:13;;;;;;;20.92;11.95;;;384.70;2048.00;;;;;;5040961;28;20033;-62
2021/12/02 08:47:45;;;;;;;15.75;12.63;;;384.70;2022.40;;;;;;5041649;28;20025;-60
2021/12/02 08:50:20;;;;;;;3.10;1.50;;;384.40;2022.40;;;;;;5040879;28;20034;-61
2021/12/02 08:52:47;;;;;;;4.30;2.70;;;384.40;2048.00;;;;;;5040012;28;20089;-59
2021/12/02 08:55:15;;;;;;;10.82;7.07;;;384.80;2022.40;;;;;;5040605;28;20025;-59
2021/12/02 08:57:40;;;;;;;9.48;6.40;;;384.80;2022.40;;;;;;5041824;28;20059;-60
2021/12/02 09:00:10;;;;;;;22.63;13.05;;;384.70;2048.00;;;;;;5048407;28;20065;-55
2021/12/02 09:02:36;;;;;;;24.35;16.45;;;384.60;2022.40;;;;;;5039454;28;20032;-58
2021/12/02 09:05:04;;;;;;;13.48;9.20;;;384.70;2022.40;;;;;;5040826;28;20021;-57
2021/12/02 09:07:29;;;;;;;42.67;27.52;;;384.60;2048.00;;;;;;5041362;28;20567;-57
2021/12/02 09:09:55;;;;;;;17.88;10.82;;;384.50;2048.00;;;;;;5038013;28;20026;-58
2021/12/02 09:12:22;;;;;;;34.33;23.00;;;384.50;2022.40;;;;;;5040862;28;20040;-58
2021/12/02 09:14:48;;;;;;;19.38;12.85;;;384.40;2073.60;;;;;;5040876;28;20022;-62
2021/12/02 09:17:13;;;;;;;27.83;21.27;;;384.40;2073.60;;;;;;5039187;28;20029;-57
2021/12/02 09:19:39;;;;;;;20.30;11.50;;;384.40;2073.60;;;;;;5040814;28;20025;-59
2021/12/02 09:22:05;;;;;;;29.30;19.17;;;384.40;2099.20;;;;;;5040360;28;20032;-59
2021/12/02 09:24:31;;;;;;;28.50;18.73;;;384.60;2048.00;;;;;;5039460;28;20017;-57
2021/12/02 09:26:56;;;;;;;27.55;18.52;;;384.80;1971.20;;;;;;5036023;28;20537;-57
2021/12/02 09:29:23;;;;;;;14.82;9.80;;;384.80;2022.40;;;;;;5039380;28;20060;-58
2021/12/02 09:31:50;;;;;;;2.13;1.42;;;384.90;1971.20;;;;;;5040113;28;20033;-58
2021/12/02 09:34:16;;;;;;;10.38;7.30;;;409.60;1971.20;;;;;;5040439;28;20021;-58
2021/12/02 09:36:42;;;;;;;23.58;12.48;;;409.60;1945.60;;;;;;5038147;28;20032;-56
2021/12/02 09:39:10;;;;;;;68.30;52.22;;;409.70;1971.20;;;;;;5039953;28;20104;-55
2021/12/02 09:41:37;;;;;;;73.93;65.50;;;409.60;1996.80;;;;;;5040796;28;20033;-57
2021/12/02 09:44:04;;;;;;;49.55;37.70;;;384.90;1996.80;;;;;;5046881;28;20018;-56
2021/12/02 09:46:31;;;;;;;31.58;23.63;;;384.90;1996.80;;;;;;5039961;28;20045;-56
2021/12/02 09:49:00;;;;;;;49.53;44.35;;;384.80;2022.40;;;;;;5040979;28;20483;-57
2021/12/02 09:51:32;;;;;;;39.55;32.95;;;384.80;1996.80;;;;;;5036668;28;20468;-57
2021/12/02 09:54:07;;;;;;;35.67;28.35;;;384.60;1971.20;;;;;;5038435;28;20022;-58
2021/12/02 09:56:35;;;;;;;37.28;32.83;;;384.60;1971.20;;;;;;5041513;28;20483;-55
2021/12/02 09:59:11;;;;;;;58.00;47.65;;;384.50;1996.80;;;;;;5038457;28;20033;-58
2021/12/02 10:01:43;;;;;;;33.88;25.17;;;384.40;1996.80;;;;;;5038146;28;20120;-59
2021/12/02 10:04:10;;;;;;;33.80;23.08;;;384.40;2022.40;;;;;;5038257;28;20108;-59
2021/12/02 10:06:37;;;;;;;62.63;44.08;;;384.40;2048.00;;;;;;5038503;28;20044;-56
2021/12/02 10:09:39;;;;;;;54.10;36.33;;;384.50;2022.40;;;;;;5040419;28;20523;-57
2021/12/02 10:12:07;;;;;;;110.97;69.97;;;384.60;2048.00;;;;;;5040227;28;20101;-57
2021/12/02 10:14:38;;;;;;;46.28;30.50;;;384.60;1996.80;;;;;;5039178;28;20021;-57
2021/12/02 10:17:12;;;;;;;35.03;24.60;;;384.60;2022.40;;;;;;5036977;28;20036;-55
2021/12/02 10:22:39;;;;;;;118.95;62.75;;;384.70;2022.40;;;;;;5039521;28;20022;-56
2021/12/02 10:25:05;;;;;;;171.60;100.75;;;384.60;1971.20;;;;;;5037928;28;20491;-56
2021/12/02 10:27:31;;;;;;;22.70;13.93;;;384.70;1971.20;;;;;;5039397;28;20094;-57
2021/12/02 10:29:57;;;;;;;49.78;28.85;;;384.60;2048.00;;;;;;5039210;28;20098;-54
2021/12/02 10:32:25;;;;;;;143.82;79.25;;;384.60;1996.80;;;;;;5033365;28;20467;-57
2021/12/02 10:35:00;;;;;;;21.05;12.45;;;384.50;2022.40;;;;;;5030271;28;20022;-57
2021/12/02 10:37:29;;;;;;;11.27;8.23;;;384.40;1996.80;;;;;;5030083;28;20037;-57
2021/12/02 10:39:58;;;;;;;48.17;32.20;;;384.40;2048.00;;;;;;5030188;28;20063;-57
2021/12/02 10:42:24;;;;;;;13.93;9.70;;;384.40;2022.40;;;;;;5030416;28;20025;-57
2021/12/02 10:44:50;;;;;;;36.75;22.83;;;384.30;1996.80;;;;;;5030300;28;20032;-57
2021/12/02 10:47:19;;;;;;;29.75;18.35;;;384.30;2022.40;;;;;;5029841;28;20107;-57
2021/12/02 10:49:58;;;;;;;23.92;15.10;;;384.10;2048.00;;;;;;5029929;28;20033;-57
2021/12/02 10:52:32;;;;;;;150.68;135.63;;;384.40;1996.80;;;;;;5030313;28;20379;-59
2021/12/02 10:55:04;;;;;;;12.00;8.43;;;384.50;2048.00;;;;;;5030114;28;20085;-58
2021/12/02 10:57:32;;;;;;;5.18;3.25;;;384.40;1996.80;;;;;;5030061;28;20021;-58
2021/12/02 11:00:03;;;;;;;21.42;17.70;;;384.30;2048.00;;;;;;5029566;28;20128;-60
2021/12/02 11:02:35;;;;;;;24.50;18.02;;;384.30;2022.40;;;;;;5029946;28;20025;-59
2021/12/02 11:05:18;;;;;;;17.02;5.22;;;384.30;2048.00;;;;;;5029772;28;20037;-61
2021/12/02 11:07:50;;;;;;;6.70;3.42;;;384.30;2022.40;;;;;;5028790;28;20025;-58
2021/12/02 11:10:16;;;;;;;18.10;12.73;;;384.30;2048.00;;;;;;5029876;28;20104;-58
2021/12/02 11:12:48;;;;;;;34.33;24.25;;;384.30;2048.00;;;;;;5030013;28;20112;-59
2021/12/02 11:15:25;;;;;;;47.55;25.23;;;384.30;2048.00;;;;;;5029892;28;20025;-59
2021/12/02 11:17:54;;;;;;;89.45;49.10;;;384.30;2048.00;;;;;;5029966;28;20021;-60
2021/12/02 11:20:41;;;;;;;46.88;23.20;;;384.30;2048.00;;;;;;5029632;28;20032;-58
2021/12/02 11:23:27;;;;;;;28.45;15.23;;;384.20;2073.60;;;;;;5029654;28;20032;-58
2021/12/02 11:26:05;;;;;;;20.33;13.20;;;384.20;2073.60;;;;;;5029705;28;20041;-58
2021/12/02 11:28:34;;;;;;;21.95;12.05;;;384.20;2048.00;;;;;;5029954;28;20084;-58
2021/12/02 11:31:11;;;;;;;25.52;15.40;;;384.20;2048.00;;;;;;5029644;28;20040;-60
2021/12/02 11:33:39;;;;;;;12.75;8.35;;;384.20;2022.40;;;;;;5029628;28;20072;-59
2021/12/02 11:36:07;;;;;;;14.20;9.63;;;384.30;2022.40;;;;;;5029864;28;20025;-59
2021/12/02 11:38:34;;;;;;;6.57;3.20;;;384.30;2022.40;;;;;;5029665;28;20387;-59
2021/12/02 11:41:02;;;;;;;14.65;9.05;;;384.30;2048.00;;;;;;5029458;28;20025;-60
2021/12/02 11:43:34;;;;;;;63.60;41.92;;;384.40;1996.80;;;;;;5028166;28;20029;-58
2021/12/02 11:46:02;;;;;;;40.58;24.05;;;384.40;2022.40;;;;;;5029813;28;20562;-58
2021/12/02 11:48:31;;;;;;;17.50;12.48;;;384.30;2022.40;;;;;;5029309;28;20537;-58
2021/12/02 11:51:00;;;;;;;3.60;1.80;;;384.30;2048.00;;;;;;5029319;28;20040;-60
2021/12/02 11:53:26;;;;;;;9.88;6.25;;;384.30;2073.60;;;;;;5029306;28;20021;-62
2021/12/02 11:56:02;;;;;;;19.33;12.77;;;384.30;2073.60;;;;;;5029806;28;20032;-60
2021/12/02 11:58:28;;;;;;;18.63;13.55;;;384.20;2022.40;;;;;;5030185;28;20017;-60
2021/12/02 12:00:55;;;;;;;31.70;21.65;;;384.30;2048.00;;;;;;5033017;28;20056;-61
2021/12/02 12:03:35;;;;;;;40.63;28.85;;;384.10;2073.60;;;;;;5033503;28;20365;-63
2021/12/02 12:06:08;;;;;;;25.95;19.98;;;384.10;2048.00;;;;;;5033375;28;20037;-59
2021/12/02 12:08:42;;;;;;;20.17;11.88;;;384.10;2073.60;;;;;;5033301;28;20126;-60
2021/12/02 12:11:36;;;;;;;43.28;30.50;;;384.10;2048.00;;;;;;5032842;28;20044;-59
2021/12/02 12:14:03;;;;;;;26.40;19.25;;;384.10;2048.00;;;;;;5033169;28;20022;-61
2021/12/02 12:16:31;;;;;;;17.95;13.40;;;384.20;2048.00;;;;;;5032675;28;20026;-63
2021/12/02 12:19:12;;;;;;;14.63;10.57;;;384.10;2048.00;;;;;;5032813;28;20060;-60
2021/12/02 12:21:40;;;;;;;38.03;26.60;;;384.10;2073.60;;;;;;5032780;28;20021;-58
2021/12/02 12:24:07;;;;;;;95.57;67.40;;;384.20;2048.00;;;;;;5032742;28;20029;-61
2021/12/02 12:26:38;;;;;;;17.80;14.15;;;384.20;2048.00;;;;;;5032703;28;20060;-65
2021/12/02 12:29:07;;;;;;;82.25;57.47;;;384.30;2048.00;;;;;;5032813;28;20043;-59
2021/12/02 12:31:37;;;;;;;52.05;35.60;;;384.30;2073.60;;;;;;5032549;28;20029;-63